sensor_id;sensor_type;location;lat;lon;timestamp;temperature;humidity
20773;DHT22;10546;50.674;4.616;2022-12-04T09:27:16;2.10;99.90
20773;DHT22;10546;50.674;4.616;2022-12-04T09:29:41;2.10;99.90
20773;DHT22;10546;50.674;4.616;2022-12-04T09:32:07;2.10;99.90
20773;DHT22;10546;50.674;4.616;2022-12-04T09:34:33;2.20;99.90
20773;DHT22;10546;50.674;4.616;2022-12-04T09:36:58;2.10;99.90
20773;DHT22;10546;50.674;4.616;2022-12-04T09:39:24;2.20;99.90
20773;DHT22;10546;50.674;4.616;2022-12-04T09:42:05;2.10;99.90
20773;DHT22;10546;50.674;4.616;2022-12-04T09:44:38;2.10;99.90
20773;DHT22;10546;50.674;4.616;2022-12-04T09:47:20;2.20;99.90
20773;DHT22;10546;50.674;4.616;2022-12-04T09:49:51;2.30;99.90
20773;DHT22;10546;50.674;4.616;2022-12-04T09:55:03;2.50;99.90
20773;DHT22;10546;50.674;4.616;2022-12-04T09:57:37;2.40;99.90
20773;DHT22;10546;50.674;4.616;2022-12-04T10:00:05;2.40;99.90
20773;DHT22;10546;50.674;4.616;2022-12-04T10:02:40;2.40;99.90
20773;DHT22;10546;50.674;4.616;2022-12-04T10:05:17;2.50;99.90
20773;DHT22;10546;50.674;4.616;2022-12-04T10:08:08;2.50;99.90
20773;DHT22;10546;50.674;4.616;2022-12-04T10:10:40;2.50;99.90
20773;DHT22;10546;50.674;4.616;2022-12-04T10:13:36;2.60;99.90
20773;DHT22;10546;50.674;4.616;2022-12-04T10:16:17;2.60;99.90
20773;DHT22;10546;50.674;4.616;2022-12-04T10:24:29;2.60;99.90
20773;DHT22;10546;50.674;4.616;2022-12-04T10:27:00;2.60;99.90
20773;DHT22;10546;50.674;4.616;2022-12-04T10:29:33;2.60;99.90
20773;DHT22;10546;50.674;4.616;2022-12-04T10:32:30;2.50;99.90
20773;DHT22;10546;50.674;4.616;2022-12-04T10:35:02;2.50;99.90
20773;DHT22;10546;50.674;4.616;2022-12-04T10:37:33;2.60;99.90
20773;DHT22;10546;50.674;4.616;2022-12-04T10:40:21;2.60;99.90
20773;DHT22;10546;50.674;4.616;2022-12-04T10:43:01;2.60;99.90
20773;DHT22;10546;50.674;4.616;2022-12-04T10:45:28;2.60;99.90
20773;DHT22;10546;50.674;4.616;2022-12-04T10:47:54;2.50;99.90
20773;DHT22;10546;50.674;4.616;2022-12-04T10:50:22;2.40;99.90
20773;DHT22;10546;50.674;4.616;2022-12-04T10:52:49;2.30;99.90
20773;DHT22;10546;50.674;4.616;2022-12-04T10:55:15;2.40;99.90
20773;DHT22;10546;50.674;4.616;2022-12-04T10:57:51;2.40;99.90
20773;DHT22;10546;50.674;4.616;2022-12-04T11:02:59;2.50;99.90
20773;DHT22;10546;50.674;4.616;2022-12-04T11:07:55;2.30;99.90
20773;DHT22;10546;50.674;4.616;2022-12-04T11:10:24;2.20;99.90
20773;DHT22;10546;50.674;4.616;2022-12-04T11:13:06;2.10;99.90
20773;DHT22;10546;50.674;4.616;2022-12-04T11:15:50;2.10;99.90
20773;DHT22;10546;50.674;4.616;2022-12-04T11:18:21;2.20;99.90
20773;DHT22;10546;50.674;4.616;2022-12-04T11:20:57;2.50;99.90
20773;DHT22;10546;50.674;4.616;2022-12-04T11:23:24;2.30;99.90
20773;DHT22;10546;50.674;4.616;2022-12-04T11:25:53;2.40;99.90
20773;DHT22;10546;50.674;4.616;2022-12-04T11:28:26;2.20;99.90
20773;DHT22;10546;50.674;4.616;2022-12-04T11:30:57;2.20;99.90
20773;DHT22;10546;50.674;4.616;2022-12-04T11:33:43;2.10;99.90
20773;DHT22;10546;50.674;4.616;2022-12-04T11:36:26;2.20;99.90
20773;DHT22;10546;50.674;4.616;2022-12-04T11:41:45;2.20;99.90
20773;DHT22;10546;50.674;4.616;2022-12-04T11:44:33;2.20;99.90
20773;DHT22;10546;50.674;4.616;2022-12-04T11:47:02;2.10;99.90
20773;DHT22;10546;50.674;4.616;2022-12-04T11:49:31;2.20;99.90
20773;DHT22;10546;50.674;4.616;2022-12-04T11:54:44;2.30;99.90
20773;DHT22;10546;50.674;4.616;2022-12-04T12:00:22;2.40;99.90
20773;DHT22;10546;50.674;4.616;2022-12-04T12:11:04;2.30;99.90
20773;DHT22;10546;50.674;4.616;2022-12-04T12:17:02;2.30;99.90
20773;DHT22;10546;50.674;4.616;2022-12-04T12:25:18;2.20;99.90
20773;DHT22;10546;50.674;4.616;2022-12-04T12:30:23;2.10;99.90
20773;DHT22;10546;50.674;4.616;2022-12-04T12:33:14;2.00;99.90
20773;DHT22;10546;50.674;4.616;2022-12-04T12:38:26;2.00;99.90
20773;DHT22;10546;50.674;4.616;2022-12-04T12:41:03;2.10;99.90
20773;DHT22;10546;50.674;4.616;2022-12-04T12:43:32;2.00;99.90
20773;DHT22;10546;50.674;4.616;2022-12-04T12:46:17;2.00;99.90
20773;DHT22;10546;50.674;4.616;2022-12-04T12:48:58;2.00;99.90
20773;DHT22;10546;50.674;4.616;2022-12-04T12:51:49;2.00;99.90
20773;DHT22;10546;50.674;4.616;2022-12-04T12:57:30;1.90;99.90
20773;DHT22;10546;50.674;4.616;2022-12-04T13:00:17;1.80;99.90
20773;DHT22;10546;50.674;4.616;2022-12-04T13:03:10;1.80;99.90
20773;DHT22;10546;50.674;4.616;2022-12-04T13:05:41;1.90;99.90
20773;DHT22;10546;50.674;4.616;2022-12-04T13:11:06;2.00;99.90
20773;DHT22;10546;50.674;4.616;2022-12-04T13:13:43;2.00;99.90
20773;DHT22;10546;50.674;4.616;2022-12-04T13:16:35;2.00;99.90
20773;DHT22;10546;50.674;4.616;2022-12-04T13:21:38;2.10;99.90
20773;DHT22;10546;50.674;4.616;2022-12-04T13:27:01;2.20;99.90
20773;DHT22;10546;50.674;4.616;2022-12-04T13:30:03;2.10;99.90
20773;DHT22;10546;50.674;4.616;2022-12-04T13:35:05;1.90;99.90
20773;DHT22;10546;50.674;4.616;2022-12-04T13:45:38;1.80;99.90
20773;DHT22;10546;50.674;4.616;2022-12-04T13:48:05;1.90;99.90
20773;DHT22;10546;50.674;4.616;2022-12-04T13:50:35;1.90;99.90
20773;DHT22;10546;50.674;4.616;2022-12-04T13:53:01;2.00;99.90
20773;DHT22;10546;50.674;4.616;2022-12-04T13:55:31;2.00;99.90
20773;DHT22;10546;50.674;4.616;2022-12-04T14:00:38;2.00;99.90
20773;DHT22;10546;50.674;4.616;2022-12-04T14:03:18;2.00;99.90
20773;DHT22;10546;50.674;4.616;2022-12-04T14:05:46;2.00;99.90
20773;DHT22;10546;50.674;4.616;2022-12-04T14:10:54;1.80;99.90
20773;DHT22;10546;50.674;4.616;2022-12-04T14:13:23;1.90;99.90
20773;DHT22;10546;50.674;4.616;2022-12-04T14:18:50;2.10;99.90
20773;DHT22;10546;50.674;4.616;2022-12-04T14:21:16;2.10;99.90
20773;DHT22;10546;50.674;4.616;2022-12-04T14:23:43;2.00;99.90
20773;DHT22;10546;50.674;4.616;2022-12-04T14:28:50;1.80;99.90
20773;DHT22;10546;50.674;4.616;2022-12-04T14:31:36;1.70;99.90
20773;DHT22;10546;50.674;4.616;2022-12-04T14:34:22;1.70;99.90
20773;DHT22;10546;50.674;4.616;2022-12-04T14:36:50;1.70;99.90
20773;DHT22;10546;50.674;4.616;2022-12-04T14:39:26;1.60;99.90
20773;DHT22;10546;50.674;4.616;2022-12-04T14:42:03;1.70;99.90
20773;DHT22;10546;50.674;4.616;2022-12-04T14:44:30;1.80;99.90
20773;DHT22;10546;50.674;4.616;2022-12-04T14:47:13;1.70;99.90
20773;DHT22;10546;50.674;4.616;2022-12-04T14:52:44;1.70;99.90
20773;DHT22;10546;50.674;4.616;2022-12-04T14:58:04;1.60;99.90
20773;DHT22;10546;50.674;4.616;2022-12-04T15:00:57;1.50;99.90
20773;DHT22;10546;50.674;4.616;2022-12-04T15:03:24;1.50;99.90
20773;DHT22;10546;50.674;4.616;2022-12-04T15:05:51;1.60;99.90
20773;DHT22;10546;50.674;4.616;2022-12-04T15:08:25;1.70;99.90
20773;DHT22;10546;50.674;4.616;2022-12-04T15:10:50;1.70;99.90
20773;DHT22;10546;50.674;4.616;2022-12-04T15:14:03;1.60;99.90
20773;DHT22;10546;50.674;4.616;2022-12-04T15:16:29;1.60;99.90
20773;DHT22;10546;50.674;4.616;2022-12-04T15:18:56;1.50;99.90
20773;DHT22;10546;50.674;4.616;2022-12-04T15:21:25;1.50;99.90
20773;DHT22;10546;50.674;4.616;2022-12-04T15:23:52;1.50;99.90
20773;DHT22;10546;50.674;4.616;2022-12-04T15:26:21;1.50;99.90
20773;DHT22;10546;50.674;4.616;2022-12-04T15:28:51;1.30;99.90
20773;DHT22;10546;50.674;4.616;2022-12-04T15:31:44;1.50;99.90
20773;DHT22;10546;50.674;4.616;2022-12-04T15:34:17;1.30;99.90
20773;DHT22;10546;50.674;4.616;2022-12-04T15:37:06;1.50;99.90
20773;DHT22;10546;50.674;4.616;2022-12-04T15:39:34;1.40;99.90
20773;DHT22;10546;50.674;4.616;2022-12-04T15:44:55;1.40;99.90
20773;DHT22;10546;50.674;4.616;2022-12-04T15:47:29;1.50;99.90
20773;DHT22;10546;50.674;4.616;2022-12-04T15:50:08;1.40;99.90
20773;DHT22;10546;50.674;4.616;2022-12-04T15:52:35;1.40;99.90
20773;DHT22;10546;50.674;4.616;2022-12-04T15:55:06;1.40;99.90
20773;DHT22;10546;50.674;4.616;2022-12-04T15:57:33;1.40;99.90
20773;DHT22;10546;50.674;4.616;2022-12-04T16:00:01;1.30;99.90
20773;DHT22;10546;50.674;4.616;2022-12-04T16:04:55;1.30;99.90
20773;DHT22;10546;50.674;4.616;2022-12-04T16:07:25;1.30;99.90
20773;DHT22;10546;50.674;4.616;2022-12-04T16:09:54;1.60;99.90
20773;DHT22;10546;50.674;4.616;2022-12-04T16:12:25;1.40;99.90
20773;DHT22;10546;50.674;4.616;2022-12-04T16:14:52;1.30;99.90
20773;DHT22;10546;50.674;4.616;2022-12-04T16:17:18;1.20;99.90
20773;DHT22;10546;50.674;4.616;2022-12-04T16:19:44;1.20;99.90
20773;DHT22;10546;50.674;4.616;2022-12-04T16:22:16;1.30;99.90
20773;DHT22;10546;50.674;4.616;2022-12-04T16:24:42;1.20;99.90
20773;DHT22;10546;50.674;4.616;2022-12-04T16:27:14;1.30;99.90
20773;DHT22;10546;50.674;4.616;2022-12-04T16:29:41;1.30;99.90
20773;DHT22;10546;50.674;4.616;2022-12-04T16:32:12;1.20;99.90
20773;DHT22;10546;50.674;4.616;2022-12-04T16:34:39;1.20;99.90
20773;DHT22;10546;50.674;4.616;2022-12-04T16:37:16;1.40;99.90
20773;DHT22;10546;50.674;4.616;2022-12-04T16:39:47;1.30;99.90
20773;DHT22;10546;50.674;4.616;2022-12-04T16:42:25;1.10;99.90
20773;DHT22;10546;50.674;4.616;2022-12-04T16:44:51;1.20;99.90
20773;DHT22;10546;50.674;4.616;2022-12-04T16:47:17;1.30;99.90
20773;DHT22;10546;50.674;4.616;2022-12-04T16:49:44;1.50;99.90
20773;DHT22;10546;50.674;4.616;2022-12-04T16:52:11;1.50;99.90
20773;DHT22;10546;50.674;4.616;2022-12-04T16:54:37;1.30;99.90
20773;DHT22;10546;50.674;4.616;2022-12-04T16:57:04;1.40;99.90
20773;DHT22;10546;50.674;4.616;2022-12-04T16:59:29;1.30;99.90
20773;DHT22;10546;50.674;4.616;2022-12-04T17:01:55;1.50;99.90
20773;DHT22;10546;50.674;4.616;2022-12-04T17:04:21;1.40;99.90
20773;DHT22;10546;50.674;4.616;2022-12-04T17:06:46;1.40;99.90
20773;DHT22;10546;50.674;4.616;2022-12-04T17:09:12;1.50;99.90
20773;DHT22;10546;50.674;4.616;2022-12-04T17:11:38;1.70;99.90
20773;DHT22;10546;50.674;4.616;2022-12-04T17:14:05;1.50;99.90
20773;DHT22;10546;50.674;4.616;2022-12-04T17:16:35;1.50;99.90
20773;DHT22;10546;50.674;4.616;2022-12-04T17:19:01;1.40;99.90
20773;DHT22;10546;50.674;4.616;2022-12-04T17:21:27;1.30;99.90
20773;DHT22;10546;50.674;4.616;2022-12-04T17:23:52;1.30;99.90
20773;DHT22;10546;50.674;4.616;2022-12-04T17:26:18;1.30;99.90
20773;DHT22;10546;50.674;4.616;2022-12-04T17:28:44;1.30;99.90
20773;DHT22;10546;50.674;4.616;2022-12-04T17:31:19;1.30;99.90
20773;DHT22;10546;50.674;4.616;2022-12-04T17:33:45;1.40;99.90
20773;DHT22;10546;50.674;4.616;2022-12-04T17:36:21;1.50;99.90
20773;DHT22;10546;50.674;4.616;2022-12-04T17:38:47;1.50;99.90
20773;DHT22;10546;50.674;4.616;2022-12-04T17:41:14;1.60;99.90
20773;DHT22;10546;50.674;4.616;2022-12-04T17:43:41;1.60;99.90
20773;DHT22;10546;50.674;4.616;2022-12-04T17:46:12;1.80;99.90
20773;DHT22;10546;50.674;4.616;2022-12-04T17:48:39;1.80;99.90
20773;DHT22;10546;50.674;4.616;2022-12-04T17:51:10;1.80;99.90
20773;DHT22;10546;50.674;4.616;2022-12-04T17:53:37;1.70;99.90
20773;DHT22;10546;50.674;4.616;2022-12-04T17:56:07;1.70;99.90
20773;DHT22;10546;50.674;4.616;2022-12-04T17:58:34;1.70;99.90
20773;DHT22;10546;50.674;4.616;2022-12-04T18:01:03;1.60;99.90
20773;DHT22;10546;50.674;4.616;2022-12-04T18:03:29;1.80;99.90
20773;DHT22;10546;50.674;4.616;2022-12-04T18:05:55;1.80;99.90
20773;DHT22;10546;50.674;4.616;2022-12-04T18:08:21;1.50;99.90
20773;DHT22;10546;50.674;4.616;2022-12-04T18:10:47;1.60;99.90
20773;DHT22;10546;50.674;4.616;2022-12-04T18:13:12;1.80;99.90
20773;DHT22;10546;50.674;4.616;2022-12-04T18:15:38;1.60;99.90
20773;DHT22;10546;50.674;4.616;2022-12-04T18:18:04;1.60;99.90
20773;DHT22;10546;50.674;4.616;2022-12-04T18:20:29;1.70;99.90
20773;DHT22;10546;50.674;4.616;2022-12-04T18:22:55;1.70;99.90
20773;DHT22;10546;50.674;4.616;2022-12-04T18:25:20;1.70;99.90
20773;DHT22;10546;50.674;4.616;2022-12-04T18:27:46;1.70;99.90
20773;DHT22;10546;50.674;4.616;2022-12-04T18:30:12;1.80;99.90
20773;DHT22;10546;50.674;4.616;2022-12-04T18:32:37;1.70;99.90
20773;DHT22;10546;50.674;4.616;2022-12-04T18:35:03;1.70;99.90
20773;DHT22;10546;50.674;4.616;2022-12-04T18:37:29;1.70;99.90
20773;DHT22;10546;50.674;4.616;2022-12-04T18:39:54;1.70;99.90
20773;DHT22;10546;50.674;4.616;2022-12-04T18:42:20;1.90;99.90
20773;DHT22;10546;50.674;4.616;2022-12-04T18:44:46;1.70;99.90
20773;DHT22;10546;50.674;4.616;2022-12-04T18:47:11;1.60;99.90
20773;DHT22;10546;50.674;4.616;2022-12-04T18:49:37;1.70;99.90
20773;DHT22;10546;50.674;4.616;2022-12-04T18:52:02;1.70;99.90
20773;DHT22;10546;50.674;4.616;2022-12-04T18:54:28;1.70;99.90
20773;DHT22;10546;50.674;4.616;2022-12-04T18:56:54;1.70;99.90
20773;DHT22;10546;50.674;4.616;2022-12-04T18:59:22;1.90;99.90
20773;DHT22;10546;50.674;4.616;2022-12-04T19:01:48;1.80;99.90
20773;DHT22;10546;50.674;4.616;2022-12-04T19:04:15;1.70;99.90
20773;DHT22;10546;50.674;4.616;2022-12-04T19:06:45;1.70;99.90
20773;DHT22;10546;50.674;4.616;2022-12-04T19:09:13;1.90;99.90
20773;DHT22;10546;50.674;4.616;2022-12-04T19:11:40;1.80;99.90
20773;DHT22;10546;50.674;4.616;2022-12-04T19:14:06;1.80;99.90
20773;DHT22;10546;50.674;4.616;2022-12-04T19:16:32;1.60;99.90
20773;DHT22;10546;50.674;4.616;2022-12-04T19:18:58;1.70;99.90
20773;DHT22;10546;50.674;4.616;2022-12-04T19:21:24;1.60;99.90
20773;DHT22;10546;50.674;4.616;2022-12-04T19:23:55;1.70;99.90
20773;DHT22;10546;50.674;4.616;2022-12-04T19:26:24;1.70;99.90
20773;DHT22;10546;50.674;4.616;2022-12-04T19:28:50;1.70;99.90
20773;DHT22;10546;50.674;4.616;2022-12-04T19:31:18;1.80;99.90
20773;DHT22;10546;50.674;4.616;2022-12-04T19:33:44;1.80;99.90
20773;DHT22;10546;50.674;4.616;2022-12-04T19:36:10;1.90;99.90
20773;DHT22;10546;50.674;4.616;2022-12-04T19:38:36;1.70;99.90
20773;DHT22;10546;50.674;4.616;2022-12-04T19:43:40;1.90;99.90
20773;DHT22;10546;50.674;4.616;2022-12-04T19:46:07;1.90;99.90
20773;DHT22;10546;50.674;4.616;2022-12-04T19:48:33;1.90;99.90
20773;DHT22;10546;50.674;4.616;2022-12-04T19:51:10;1.80;99.90
20773;DHT22;10546;50.674;4.616;2022-12-04T19:53:37;2.00;99.90
20773;DHT22;10546;50.674;4.616;2022-12-04T19:56:04;1.90;99.90
20773;DHT22;10546;50.674;4.616;2022-12-04T19:58:31;1.90;99.90
20773;DHT22;10546;50.674;4.616;2022-12-04T20:01:00;1.80;99.90
20773;DHT22;10546;50.674;4.616;2022-12-04T20:03:26;1.90;99.90
20773;DHT22;10546;50.674;4.616;2022-12-04T20:05:52;1.90;99.90
20773;DHT22;10546;50.674;4.616;2022-12-04T20:08:18;2.00;99.90
20773;DHT22;10546;50.674;4.616;2022-12-04T20:10:43;2.20;99.90
20773;DHT22;10546;50.674;4.616;2022-12-04T20:13:09;2.10;99.90
20773;DHT22;10546;50.674;4.616;2022-12-04T20:15:36;2.40;99.90
20773;DHT22;10546;50.674;4.616;2022-12-04T20:18:01;2.20;99.90
20773;DHT22;10546;50.674;4.616;2022-12-04T20:20:27;2.20;99.90
20773;DHT22;10546;50.674;4.616;2022-12-04T20:22:53;2.10;99.90
20773;DHT22;10546;50.674;4.616;2022-12-04T20:25:18;2.10;99.90
20773;DHT22;10546;50.674;4.616;2022-12-04T20:27:44;2.00;99.90
20773;DHT22;10546;50.674;4.616;2022-12-04T20:30:10;2.10;99.90
20773;DHT22;10546;50.674;4.616;2022-12-04T20:32:35;2.20;99.90
20773;DHT22;10546;50.674;4.616;2022-12-04T20:35:01;2.40;99.90
20773;DHT22;10546;50.674;4.616;2022-12-04T20:37:27;2.40;99.90
20773;DHT22;10546;50.674;4.616;2022-12-04T20:39:53;2.40;99.90
20773;DHT22;10546;50.674;4.616;2022-12-04T20:42:18;2.30;99.90
20773;DHT22;10546;50.674;4.616;2022-12-04T20:44:44;2.30;99.90
20773;DHT22;10546;50.674;4.616;2022-12-04T20:47:10;2.20;99.90
20773;DHT22;10546;50.674;4.616;2022-12-04T20:49:35;2.20;99.90
20773;DHT22;10546;50.674;4.616;2022-12-04T20:52:02;2.20;99.90
20773;DHT22;10546;50.674;4.616;2022-12-04T20:54:27;2.20;99.90
20773;DHT22;10546;50.674;4.616;2022-12-04T20:56:53;2.20;99.90
20773;DHT22;10546;50.674;4.616;2022-12-04T20:59:20;2.30;99.90
20773;DHT22;10546;50.674;4.616;2022-12-04T21:01:47;2.30;99.90
20773;DHT22;10546;50.674;4.616;2022-12-04T21:04:14;2.50;99.90
20773;DHT22;10546;50.674;4.616;2022-12-04T21:06:42;2.50;99.90
20773;DHT22;10546;50.674;4.616;2022-12-04T21:09:19;2.40;99.90
20773;DHT22;10546;50.674;4.616;2022-12-04T21:11:50;2.30;99.90
20773;DHT22;10546;50.674;4.616;2022-12-04T21:14:19;2.10;99.90
20773;DHT22;10546;50.674;4.616;2022-12-04T21:17:07;2.00;99.90
20773;DHT22;10546;50.674;4.616;2022-12-04T21:19:34;2.10;99.90
20773;DHT22;10546;50.674;4.616;2022-12-04T21:21:59;2.00;99.90
20773;DHT22;10546;50.674;4.616;2022-12-04T21:24:25;2.00;99.90
20773;DHT22;10546;50.674;4.616;2022-12-04T21:26:53;1.90;99.90
20773;DHT22;10546;50.674;4.616;2022-12-04T21:29:19;1.90;99.90
20773;DHT22;10546;50.674;4.616;2022-12-04T21:31:45;2.00;99.90
20773;DHT22;10546;50.674;4.616;2022-12-04T21:34:13;2.00;99.90
20773;DHT22;10546;50.674;4.616;2022-12-04T21:36:39;2.00;99.90
20773;DHT22;10546;50.674;4.616;2022-12-04T21:39:08;2.00;99.90
20773;DHT22;10546;50.674;4.616;2022-12-04T21:41:35;2.00;99.90
20773;DHT22;10546;50.674;4.616;2022-12-04T21:44:19;2.00;99.90
20773;DHT22;10546;50.674;4.616;2022-12-04T21:46:45;2.20;99.90
20773;DHT22;10546;50.674;4.616;2022-12-04T21:49:12;2.20;99.90
20773;DHT22;10546;50.674;4.616;2022-12-04T21:51:38;2.00;99.90
20773;DHT22;10546;50.674;4.616;2022-12-04T21:54:04;2.10;99.90
20773;DHT22;10546;50.674;4.616;2022-12-04T21:56:29;2.00;99.90
20773;DHT22;10546;50.674;4.616;2022-12-04T21:58:55;2.00;99.90
20773;DHT22;10546;50.674;4.616;2022-12-04T22:01:22;2.10;99.90
20773;DHT22;10546;50.674;4.616;2022-12-04T22:03:49;2.00;99.90
20773;DHT22;10546;50.674;4.616;2022-12-04T22:06:25;2.10;99.90
20773;DHT22;10546;50.674;4.616;2022-12-04T22:08:51;2.20;99.90
20773;DHT22;10546;50.674;4.616;2022-12-04T22:11:18;2.30;99.90
20773;DHT22;10546;50.674;4.616;2022-12-04T22:13:44;2.20;99.90
20773;DHT22;10546;50.674;4.616;2022-12-04T22:16:12;2.30;99.90
20773;DHT22;10546;50.674;4.616;2022-12-04T22:18:38;2.10;99.90
20773;DHT22;10546;50.674;4.616;2022-12-04T22:21:09;2.10;99.90
20773;DHT22;10546;50.674;4.616;2022-12-04T22:23:41;2.20;99.90
20773;DHT22;10546;50.674;4.616;2022-12-04T22:26:13;2.20;99.90
20773;DHT22;10546;50.674;4.616;2022-12-04T22:28:43;2.20;99.90
20773;DHT22;10546;50.674;4.616;2022-12-04T22:31:14;2.10;99.90
20773;DHT22;10546;50.674;4.616;2022-12-04T22:33:40;2.30;99.90
20773;DHT22;10546;50.674;4.616;2022-12-04T22:36:07;2.20;99.90
20773;DHT22;10546;50.674;4.616;2022-12-04T22:38:33;2.10;99.90
20773;DHT22;10546;50.674;4.616;2022-12-04T22:41:01;2.00;99.90
20773;DHT22;10546;50.674;4.616;2022-12-04T22:43:28;2.10;99.90
20773;DHT22;10546;50.674;4.616;2022-12-04T22:45:57;2.20;99.90
20773;DHT22;10546;50.674;4.616;2022-12-04T22:48:24;2.10;99.90
20773;DHT22;10546;50.674;4.616;2022-12-04T22:51:02;2.20;99.90
20773;DHT22;10546;50.674;4.616;2022-12-04T22:53:29;2.10;99.90
20773;DHT22;10546;50.674;4.616;2022-12-04T22:55:55;2.10;99.90
20773;DHT22;10546;50.674;4.616;2022-12-04T22:58:21;2.20;99.90
20773;DHT22;10546;50.674;4.616;2022-12-04T23:00:47;2.10;99.90
20773;DHT22;10546;50.674;4.616;2022-12-04T23:03:14;2.10;99.90
20773;DHT22;10546;50.674;4.616;2022-12-04T23:05:40;2.10;99.90
20773;DHT22;10546;50.674;4.616;2022-12-04T23:08:05;2.10;99.90
20773;DHT22;10546;50.674;4.616;2022-12-04T23:10:31;2.30;99.90
20773;DHT22;10546;50.674;4.616;2022-12-04T23:13:00;2.20;99.90
